createdAt,value
2023-01-26T00:01:32.091Z,10.32
2023-01-26T00:03:58.890Z,10.18
2023-01-26T00:06:26.614Z,10.02
2023-01-26T00:08:55.261Z,11.38
2023-01-26T00:11:27.037Z,10.27
2023-01-26T00:13:57.008Z,9.60
2023-01-26T00:16:30.182Z,9.90
2023-01-26T00:18:56.890Z,10.07
2023-01-26T00:21:24.625Z,10.63
2023-01-26T00:23:52.541Z,10.05
2023-01-26T00:26:22.162Z,9.68
2023-01-26T00:28:49.330Z,11.13
2023-01-26T00:31:19.580Z,12.10
2023-01-26T00:33:50.469Z,10.50
2023-01-26T00:36:19.053Z,10.38
2023-01-26T00:38:48.827Z,10.98
2023-01-26T00:41:34.260Z,9.77
2023-01-26T00:44:07.219Z,10.95
2023-01-26T00:46:34.290Z,10.82
2023-01-26T00:49:01.345Z,10.80
2023-01-26T00:51:30.036Z,10.80
2023-01-26T00:54:01.035Z,11.05
2023-01-26T00:56:28.325Z,9.82
2023-01-26T00:58:58.038Z,10.68
2023-01-26T01:01:28.001Z,11.35
2023-01-26T01:03:58.028Z,12.18
2023-01-26T01:07:01.695Z,11.85
2023-01-26T01:09:28.722Z,11.60
2023-01-26T01:12:00.692Z,10.32
2023-01-26T01:14:27.859Z,10.57
2023-01-26T01:16:55.494Z,11.00
2023-01-26T01:19:23.064Z,11.90
2023-01-26T01:21:50.464Z,10.45
2023-01-26T01:24:18.114Z,10.90
2023-01-26T01:26:47.427Z,10.68
2023-01-26T01:29:14.701Z,10.85
2023-01-26T01:31:43.623Z,10.55
2023-01-26T01:34:10.557Z,11.13
2023-01-26T01:36:37.506Z,10.20
2023-01-26T01:39:04.553Z,10.88
2023-01-26T01:41:33.856Z,10.27
2023-01-26T01:44:22.405Z,10.82
2023-01-26T01:46:52.763Z,12.15
2023-01-26T01:49:22.550Z,11.63
2023-01-26T01:52:18.592Z,11.15
2023-01-26T01:54:50.663Z,11.05
2023-01-26T01:57:29.059Z,11.57
2023-01-26T02:00:01.027Z,12.07
2023-01-26T02:02:27.982Z,11.50
2023-01-26T02:05:00.045Z,10.45
2023-01-26T02:07:31.676Z,11.52
2023-01-26T02:10:19.412Z,11.50
2023-01-26T02:12:53.188Z,10.73
2023-01-26T02:15:20.174Z,11.65
2023-01-26T02:17:47.339Z,11.88
2023-01-26T02:20:26.448Z,11.60
2023-01-26T02:23:16.707Z,10.18
2023-01-26T02:25:53.256Z,10.30
2023-01-26T02:28:25.411Z,11.77
2023-01-26T02:30:52.972Z,10.68
2023-01-26T02:33:21.508Z,11.48
2023-01-26T02:35:51.802Z,12.20
2023-01-26T02:38:24.517Z,11.18
2023-01-26T02:41:05.641Z,11.20
2023-01-26T02:43:34.859Z,10.70
2023-01-26T02:46:02.370Z,10.55
2023-01-26T02:48:49.071Z,11.15
2023-01-26T02:51:15.962Z,11.30
2023-01-26T02:53:42.698Z,10.43
2023-01-26T02:56:09.612Z,9.63
2023-01-26T02:58:36.509Z,11.15
2023-01-26T03:01:04.171Z,11.10
2023-01-26T03:03:43.236Z,10.10
2023-01-26T03:06:11.204Z,10.15
2023-01-26T03:08:38.528Z,10.30
2023-01-26T03:11:07.269Z,9.95
2023-01-26T03:13:35.096Z,9.68
2023-01-26T03:16:07.441Z,8.20
2023-01-26T03:18:54.142Z,9.20
2023-01-26T03:21:40.535Z,9.88
2023-01-26T03:24:30.618Z,8.98
2023-01-26T03:27:16.312Z,9.38
2023-01-26T03:29:43.710Z,8.50
2023-01-26T03:32:11.297Z,8.98
2023-01-26T03:34:38.317Z,8.50
2023-01-26T03:37:05.837Z,8.60
2023-01-26T03:39:53.405Z,8.40
2023-01-26T03:42:39.077Z,8.20
2023-01-26T03:45:25.802Z,7.82
2023-01-26T03:48:12.229Z,9.30
2023-01-26T03:50:57.865Z,8.98
2023-01-26T03:53:44.110Z,7.75
2023-01-26T03:56:19.519Z,8.02
2023-01-26T03:58:47.790Z,9.07
2023-01-26T04:01:20.759Z,8.82
2023-01-26T04:04:10.412Z,7.80
2023-01-26T04:06:59.433Z,8.35
2023-01-26T04:09:29.258Z,8.95
2023-01-26T04:11:56.200Z,7.78
2023-01-26T04:14:49.369Z,8.63
2023-01-26T04:17:39.634Z,9.35
2023-01-26T04:20:25.795Z,9.20
2023-01-26T04:22:53.103Z,9.45
2023-01-26T04:25:21.858Z,8.45
2023-01-26T04:27:49.175Z,9.05
2023-01-26T04:30:17.292Z,9.20
2023-01-26T04:32:44.556Z,9.18
2023-01-26T04:35:11.456Z,9.18
2023-01-26T04:37:39.528Z,9.35
2023-01-26T04:40:07.676Z,8.07
2023-01-26T04:42:35.192Z,10.02
2023-01-26T04:45:02.571Z,8.70
2023-01-26T04:47:29.641Z,8.65
2023-01-26T04:49:56.754Z,9.30
2023-01-26T04:52:23.919Z,8.38
2023-01-26T04:54:51.234Z,9.38
2023-01-26T04:57:20.857Z,9.23
2023-01-26T04:59:50.879Z,10.23
2023-01-26T05:02:22.737Z,10.30
2023-01-26T05:04:52.241Z,9.25
2023-01-26T05:07:19.389Z,9.27
2023-01-26T05:09:46.517Z,9.38
2023-01-26T05:12:32.729Z,9.60
2023-01-26T05:15:03.174Z,8.82
2023-01-26T05:17:33.760Z,9.60
2023-01-26T05:20:00.779Z,8.52
2023-01-26T05:22:28.345Z,8.10
2023-01-26T05:24:55.256Z,9.20
2023-01-26T05:27:22.462Z,9.30
2023-01-26T05:29:50.813Z,8.93
2023-01-26T05:32:21.405Z,7.70
2023-01-26T05:34:51.174Z,8.20
2023-01-26T05:37:18.445Z,8.40
2023-01-26T05:39:45.689Z,7.75
2023-01-26T05:42:13.072Z,7.60
2023-01-26T05:44:40.512Z,6.30
2023-01-26T05:47:07.456Z,6.30
2023-01-26T05:49:34.632Z,6.28
2023-01-26T05:52:01.550Z,6.78
2023-01-26T05:54:28.573Z,6.72
2023-01-26T05:56:55.611Z,7.20
2023-01-26T05:59:25.400Z,7.03
2023-01-26T06:01:52.344Z,6.35
2023-01-26T06:04:21.480Z,7.45
2023-01-26T06:07:01.788Z,7.50
2023-01-26T06:09:29.213Z,7.63
2023-01-26T06:11:59.677Z,8.82
2023-01-26T06:14:29.897Z,8.73
2023-01-26T06:16:57.117Z,7.78
2023-01-26T06:19:29.889Z,9.48
2023-01-26T06:21:57.009Z,8.45
2023-01-26T06:24:24.554Z,8.40
2023-01-26T06:26:51.755Z,7.50
2023-01-26T06:29:18.857Z,8.93
2023-01-26T06:31:45.943Z,9.32
2023-01-26T06:34:13.719Z,7.55
2023-01-26T06:36:41.492Z,7.18
2023-01-26T06:39:10.916Z,7.63
2023-01-26T06:41:37.885Z,7.78
2023-01-26T06:44:05.045Z,8.15
2023-01-26T06:46:33.980Z,8.25
2023-01-26T06:49:09.638Z,8.07
2023-01-26T06:51:55.760Z,7.88
2023-01-26T06:54:35.512Z,7.88
2023-01-26T06:57:08.161Z,8.60
2023-01-26T06:59:50.794Z,8.50
2023-01-26T07:02:20.770Z,7.32
2023-01-26T07:04:48.826Z,7.72
2023-01-26T07:07:23.425Z,7.03
2023-01-26T07:09:53.212Z,6.30
2023-01-26T07:12:19.948Z,7.00
2023-01-26T07:14:47.401Z,6.40
2023-01-26T07:17:20.175Z,6.75
2023-01-26T07:19:47.100Z,5.70
2023-01-26T07:22:17.335Z,6.22
2023-01-26T07:24:50.531Z,6.32
2023-01-26T07:27:17.362Z,6.18
2023-01-26T07:29:44.483Z,6.65
2023-01-26T07:32:11.579Z,6.65
2023-01-26T07:34:41.174Z,6.40
2023-01-26T07:37:08.158Z,6.20
2023-01-26T07:39:38.040Z,6.75
2023-01-26T07:42:07.859Z,7.15
2023-01-26T07:44:34.680Z,6.82
2023-01-26T07:47:01.604Z,7.65
2023-01-26T07:49:28.442Z,7.65
2023-01-26T07:51:55.204Z,6.60
2023-01-26T07:54:21.881Z,6.90
2023-01-26T07:56:53.112Z,6.30
2023-01-26T07:59:20.832Z,6.78
2023-01-26T08:01:49.634Z,6.50
2023-01-26T08:04:16.550Z,6.40
2023-01-26T08:06:43.585Z,7.38
2023-01-26T08:09:10.820Z,7.10
2023-01-26T08:11:37.852Z,7.07
2023-01-26T08:14:04.895Z,7.00
2023-01-26T08:16:31.793Z,6.50
2023-01-26T08:18:58.879Z,6.50
2023-01-26T08:21:25.990Z,6.68
2023-01-26T08:23:53.194Z,7.22
2023-01-26T08:26:20.463Z,6.43
2023-01-26T08:28:47.753Z,6.47
2023-01-26T08:31:28.496Z,7.03
2023-01-26T08:33:55.846Z,6.00
2023-01-26T08:36:23.361Z,6.28
2023-01-26T08:38:51.380Z,6.97
2023-01-26T08:41:18.902Z,6.95
2023-01-26T08:43:45.776Z,6.75
2023-01-26T08:46:12.643Z,6.53
2023-01-26T08:48:39.684Z,6.38
2023-01-26T08:51:10.206Z,6.25
2023-01-26T08:53:38.033Z,5.65
2023-01-26T08:56:07.002Z,5.53
2023-01-26T08:58:35.720Z,6.53
2023-01-26T09:01:07.415Z,5.53
2023-01-26T09:03:36.799Z,5.82
2023-01-26T09:06:05.350Z,5.93
2023-01-26T09:08:32.691Z,6.78
2023-01-26T09:11:02.689Z,5.85
2023-01-26T09:13:29.483Z,5.82
2023-01-26T09:15:56.238Z,5.20
2023-01-26T09:18:23.012Z,4.82
2023-01-26T09:20:51.310Z,5.47
2023-01-26T09:23:20.738Z,5.53
2023-01-26T09:25:52.995Z,6.22
2023-01-26T09:28:19.857Z,6.15
2023-01-26T09:30:46.614Z,5.82
2023-01-26T09:33:16.482Z,6.10
2023-01-26T09:35:43.406Z,6.10
2023-01-26T09:38:11.534Z,6.97
2023-01-26T09:41:15.924Z,6.80
2023-01-26T09:44:12.198Z,5.72
2023-01-26T09:46:55.290Z,6.57
2023-01-26T09:49:47.389Z,6.90
2023-01-26T09:52:28.064Z,6.80
2023-01-26T09:55:05.907Z,6.85
2023-01-26T09:57:54.046Z,7.40
2023-01-26T10:00:51.138Z,7.45
2023-01-26T10:03:27.258Z,6.45
2023-01-26T10:06:13.749Z,7.25
2023-01-26T10:08:42.493Z,6.88
2023-01-26T10:11:19.747Z,6.18
2023-01-26T10:13:54.009Z,6.78
2023-01-26T10:16:24.513Z,6.75
2023-01-26T10:19:13.424Z,5.97
2023-01-26T10:21:44.936Z,7.00
2023-01-26T10:24:12.635Z,5.82
2023-01-26T10:26:39.421Z,5.40
2023-01-26T10:29:06.323Z,5.95
2023-01-26T10:31:34.881Z,7.25
2023-01-26T10:34:26.191Z,7.50
2023-01-26T10:36:59.120Z,7.07
2023-01-26T10:39:26.485Z,7.20
2023-01-26T10:42:00.966Z,6.72
2023-01-26T10:44:39.017Z,7.45
2023-01-26T10:47:15.044Z,7.68
2023-01-26T10:49:42.211Z,7.93
2023-01-26T10:52:20.580Z,7.93
2023-01-26T10:55:07.845Z,7.05
2023-01-26T10:57:38.709Z,7.03
2023-01-26T11:00:11.050Z,6.10
2023-01-26T11:02:38.100Z,6.63
2023-01-26T11:05:10.147Z,6.30
2023-01-26T11:07:45.565Z,6.25
2023-01-26T11:10:39.854Z,6.07
2023-01-26T11:13:12.678Z,6.65
2023-01-26T11:15:41.560Z,6.07
2023-01-26T11:18:25.415Z,6.70
2023-01-26T11:21:03.053Z,6.82
2023-01-26T11:24:05.280Z,7.05
2023-01-26T11:26:56.384Z,7.10
2023-01-26T11:29:51.326Z,6.75
2023-01-26T11:32:30.269Z,6.53
2023-01-26T11:35:03.119Z,7.05
2023-01-26T11:37:38.952Z,7.07
2023-01-26T11:40:41.282Z,7.68
2023-01-26T11:43:25.674Z,7.05
2023-01-26T11:45:58.446Z,6.22
2023-01-26T11:48:32.607Z,7.60
2023-01-26T11:51:20.540Z,6.82
2023-01-26T11:54:05.098Z,6.95
2023-01-26T11:56:35.580Z,8.20
2023-01-26T11:59:25.582Z,7.38
2023-01-26T12:02:11.565Z,7.22
2023-01-26T12:04:45.510Z,6.63
2023-01-26T12:07:18.345Z,6.40
2023-01-26T12:09:48.385Z,6.57
2023-01-26T12:12:36.402Z,6.78
2023-01-26T12:15:30.821Z,6.60
2023-01-26T12:18:06.586Z,6.15
2023-01-26T12:20:43.101Z,6.13
2023-01-26T12:23:22.184Z,5.63
2023-01-26T12:25:59.785Z,4.78
2023-01-26T12:28:34.111Z,5.07
2023-01-26T12:31:10.881Z,4.57
2023-01-26T12:33:44.283Z,4.78
2023-01-26T12:37:00.202Z,4.30
2023-01-26T12:39:38.552Z,4.50
2023-01-26T12:42:15.317Z,4.00
2023-01-26T12:44:44.777Z,4.18
2023-01-26T12:47:20.513Z,4.35
2023-01-26T12:49:59.918Z,4.75
2023-01-26T12:52:31.956Z,4.93
2023-01-26T12:55:04.928Z,5.15
2023-01-26T12:57:37.037Z,4.57
2023-01-26T13:00:16.450Z,4.55
2023-01-26T13:02:46.112Z,4.43
2023-01-26T13:05:34.469Z,4.05
2023-01-26T13:08:34.233Z,4.30
2023-01-26T13:11:04.883Z,4.40
2023-01-26T13:13:51.318Z,4.40
2023-01-26T13:16:18.030Z,4.50
2023-01-26T13:18:50.336Z,5.05
2023-01-26T13:21:42.522Z,4.40
2023-01-26T13:24:18.198Z,5.25
2023-01-26T13:26:49.709Z,4.97
2023-01-26T13:29:25.494Z,5.28
2023-01-26T13:31:52.970Z,5.03
2023-01-26T13:34:27.471Z,5.03
2023-01-26T13:37:04.322Z,5.60
2023-01-26T13:39:38.696Z,5.68
2023-01-26T13:42:16.945Z,5.85
2023-01-26T13:44:48.604Z,6.70
2023-01-26T13:47:21.308Z,6.90
2023-01-26T13:49:50.558Z,7.10
2023-01-26T13:52:24.178Z,6.13
2023-01-26T13:54:54.680Z,7.55
2023-01-26T13:57:29.384Z,7.07
2023-01-26T14:00:00.733Z,6.70
2023-01-26T14:02:31.511Z,7.40
2023-01-26T14:04:58.947Z,7.90
2023-01-26T14:07:28.730Z,8.18
2023-01-26T14:10:08.267Z,8.60
2023-01-26T14:12:46.436Z,8.88
2023-01-26T14:15:30.056Z,8.70
2023-01-26T14:17:59.438Z,9.23
2023-01-26T14:20:33.402Z,8.45
2023-01-26T14:23:14.805Z,8.70
2023-01-26T14:26:06.893Z,8.05
2023-01-26T14:28:41.836Z,7.90
2023-01-26T14:31:24.208Z,8.90
2023-01-26T14:33:56.204Z,9.20
2023-01-26T14:36:27.078Z,8.55
2023-01-26T14:38:55.255Z,9.20
2023-01-26T14:41:25.895Z,9.18
2023-01-26T14:43:58.613Z,8.70
2023-01-26T14:46:31.883Z,9.38
2023-01-26T14:49:06.059Z,9.20
2023-01-26T14:51:35.079Z,8.27
2023-01-26T14:54:05.297Z,8.07
2023-01-26T14:56:41.192Z,7.90
2023-01-26T14:59:09.726Z,7.75
2023-01-26T15:01:36.742Z,8.43
2023-01-26T15:04:09.506Z,8.23
2023-01-26T15:06:36.417Z,9.48
2023-01-26T15:09:21.570Z,7.97
2023-01-26T15:12:17.861Z,7.47
2023-01-26T15:14:54.756Z,7.38
2023-01-26T15:17:30.957Z,8.48
2023-01-26T15:19:58.040Z,8.82
2023-01-26T15:22:26.691Z,9.13
2023-01-26T15:25:06.638Z,8.73
2023-01-26T15:27:35.414Z,8.82
2023-01-26T15:30:04.549Z,9.07
2023-01-26T15:32:38.275Z,9.10
2023-01-26T15:35:26.162Z,8.90
2023-01-26T15:38:11.281Z,9.10
2023-01-26T15:40:38.684Z,9.35
2023-01-26T15:43:16.229Z,8.82
2023-01-26T15:46:03.198Z,8.63
2023-01-26T15:48:32.054Z,9.50
2023-01-26T15:50:58.669Z,9.20
2023-01-26T15:53:26.014Z,8.90
2023-01-26T15:55:53.322Z,8.75
2023-01-26T15:58:20.011Z,8.82
2023-01-26T16:00:47.609Z,9.65
2023-01-26T16:03:19.763Z,8.88
2023-01-26T16:05:50.422Z,9.50
2023-01-26T16:08:18.125Z,9.50
2023-01-26T16:10:45.249Z,9.98
2023-01-26T16:13:20.920Z,10.30
2023-01-26T16:15:50.252Z,8.88
2023-01-26T16:18:17.330Z,9.30
2023-01-26T16:20:46.110Z,10.25
2023-01-26T16:23:18.708Z,10.63
2023-01-26T16:25:46.233Z,10.40
2023-01-26T16:28:13.044Z,9.90
2023-01-26T16:30:40.823Z,10.27
2023-01-26T16:33:21.087Z,9.68
2023-01-26T16:35:48.071Z,9.05
2023-01-26T16:38:15.005Z,9.80
2023-01-26T16:40:43.356Z,9.20
2023-01-26T16:43:23.790Z,9.50
2023-01-26T16:45:51.573Z,9.60
2023-01-26T16:48:18.410Z,8.52
2023-01-26T16:50:45.606Z,9.07
2023-01-26T16:53:24.040Z,9.00
2023-01-26T16:55:50.839Z,8.65
2023-01-26T16:58:17.677Z,9.23
2023-01-26T17:00:44.788Z,10.00
2023-01-26T17:03:13.230Z,9.23
2023-01-26T17:05:40.836Z,9.70
2023-01-26T17:08:08.086Z,9.13
2023-01-26T17:10:35.244Z,10.27
2023-01-26T17:13:02.102Z,9.80
2023-01-26T17:15:29.515Z,9.70
2023-01-26T17:17:56.982Z,9.25
2023-01-26T17:20:24.272Z,10.20
2023-01-26T17:22:51.444Z,9.82
2023-01-26T17:25:18.573Z,11.57
2023-01-26T17:27:46.631Z,10.63
2023-01-26T17:30:13.858Z,11.48
2023-01-26T17:32:42.375Z,10.40
2023-01-26T17:35:09.724Z,12.25
2023-01-26T17:37:37.711Z,12.48
2023-01-26T17:40:05.175Z,11.20
2023-01-26T17:42:35.098Z,12.15
2023-01-26T17:45:04.301Z,12.15
2023-01-26T17:47:34.080Z,10.85
2023-01-26T17:50:01.215Z,12.52
2023-01-26T17:52:28.252Z,13.10
2023-01-26T17:54:58.145Z,12.38
2023-01-26T17:57:24.908Z,12.45
2023-01-26T17:59:51.725Z,13.85
2023-01-26T18:02:18.570Z,13.88
2023-01-26T18:04:45.890Z,12.73
2023-01-26T18:07:12.956Z,12.40
2023-01-26T18:09:39.734Z,12.15
2023-01-26T18:12:07.036Z,11.30
2023-01-26T18:14:33.937Z,11.15
2023-01-26T18:17:01.030Z,10.35
2023-01-26T18:19:27.934Z,10.55
2023-01-26T18:21:54.953Z,10.75
2023-01-26T18:24:23.095Z,11.27
2023-01-26T18:26:50.260Z,11.23
2023-01-26T18:29:17.188Z,11.75
2023-01-26T18:31:43.908Z,10.80
2023-01-26T18:34:11.704Z,10.43
2023-01-26T18:36:38.622Z,11.38
2023-01-26T18:39:09.086Z,10.80
2023-01-26T18:41:36.107Z,10.23
2023-01-26T18:44:03.925Z,10.57
2023-01-26T18:46:31.454Z,10.80
2023-01-26T18:49:04.805Z,10.40
2023-01-26T18:51:36.973Z,11.30
2023-01-26T18:54:05.991Z,9.80
2023-01-26T18:56:33.900Z,10.10
2023-01-26T18:59:00.756Z,10.40
2023-01-26T19:01:28.511Z,9.48
2023-01-26T19:03:55.885Z,10.77
2023-01-26T19:06:24.486Z,9.70
2023-01-26T19:09:01.031Z,10.57
2023-01-26T19:11:30.287Z,10.40
2023-01-26T19:14:00.603Z,10.32
2023-01-26T19:16:28.352Z,10.27
2023-01-26T19:18:56.111Z,10.20
2023-01-26T19:21:24.960Z,10.90
2023-01-26T19:23:53.180Z,10.20
2023-01-26T19:26:22.136Z,12.18
2023-01-26T19:28:51.074Z,9.98
2023-01-26T19:31:19.771Z,10.02
2023-01-26T19:33:53.917Z,10.73
2023-01-26T19:36:21.266Z,10.52
2023-01-26T19:38:50.083Z,11.52
2023-01-26T19:41:17.888Z,10.80
2023-01-26T19:43:44.834Z,9.50
2023-01-26T19:46:13.248Z,9.00
2023-01-26T19:48:40.397Z,10.27
2023-01-26T19:51:14.112Z,10.60
2023-01-26T19:53:43.021Z,11.02
2023-01-26T19:56:14.861Z,11.07
2023-01-26T19:58:41.492Z,10.52
2023-01-26T20:01:10.871Z,10.35
2023-01-26T20:03:38.383Z,9.70
2023-01-26T20:06:06.112Z,9.98
2023-01-26T20:08:33.713Z,11.75
2023-01-26T20:11:08.694Z,11.75
2023-01-26T20:13:36.363Z,10.45
2023-01-26T20:16:04.939Z,10.95
2023-01-26T20:18:31.658Z,10.88
2023-01-26T20:21:00.849Z,12.32
2023-01-26T20:23:28.459Z,11.50
2023-01-26T20:26:21.991Z,12.15
2023-01-26T20:28:48.831Z,10.00
2023-01-26T20:31:21.286Z,9.90
2023-01-26T20:33:49.367Z,10.18
2023-01-26T20:36:21.425Z,10.68
2023-01-26T20:38:49.681Z,10.35
2023-01-26T20:41:19.165Z,10.95
2023-01-26T20:44:01.703Z,10.13
2023-01-26T20:46:49.805Z,9.82
2023-01-26T20:49:18.758Z,10.57
2023-01-26T20:51:46.219Z,12.05
2023-01-26T20:54:14.853Z,11.77
2023-01-26T20:56:42.667Z,10.20
2023-01-26T20:59:10.856Z,11.50
2023-01-26T21:01:37.729Z,10.90
2023-01-26T21:04:06.956Z,11.70
2023-01-26T21:06:34.522Z,11.43
2023-01-26T21:09:04.095Z,10.73
2023-01-26T21:11:31.826Z,11.75
2023-01-26T21:14:03.467Z,12.45
2023-01-26T21:16:31.891Z,11.48
2023-01-26T21:18:59.021Z,10.85
2023-01-26T21:21:26.038Z,10.60
2023-01-26T21:23:52.940Z,12.18
2023-01-26T21:26:23.226Z,11.55
2023-01-26T21:28:55.533Z,10.55
2023-01-26T21:31:25.147Z,11.70
2023-01-26T21:33:52.405Z,11.50
2023-01-26T21:36:21.322Z,11.25
2023-01-26T21:38:51.099Z,10.65
2023-01-26T21:41:39.250Z,12.00
2023-01-26T21:44:11.292Z,11.27
2023-01-26T21:46:41.406Z,10.50
2023-01-26T21:49:08.588Z,11.38
2023-01-26T21:51:54.337Z,10.80
2023-01-26T21:54:21.671Z,11.00
2023-01-26T21:56:48.425Z,11.20
2023-01-26T21:59:16.103Z,11.38
2023-01-26T22:01:48.128Z,10.88
2023-01-26T22:04:17.804Z,11.00
2023-01-26T22:06:44.746Z,10.02
2023-01-26T22:09:13.878Z,11.75
2023-01-26T22:11:43.471Z,10.68
2023-01-26T22:14:18.682Z,10.27
2023-01-26T22:16:45.709Z,10.48
2023-01-26T22:19:13.085Z,9.85
2023-01-26T22:21:39.859Z,9.85
2023-01-26T22:24:07.217Z,10.15
2023-01-26T22:26:34.343Z,10.68
2023-01-26T22:29:01.099Z,11.40
2023-01-26T22:31:29.358Z,10.77
2023-01-26T22:33:58.169Z,10.23
2023-01-26T22:36:26.002Z,10.30
2023-01-26T22:38:52.964Z,10.95
2023-01-26T22:41:25.274Z,9.95
2023-01-26T22:43:54.613Z,10.70
2023-01-26T22:46:23.212Z,10.30
2023-01-26T22:48:50.583Z,11.63
2023-01-26T22:51:20.466Z,11.00
2023-01-26T22:53:49.297Z,11.35
2023-01-26T22:56:18.616Z,9.88
2023-01-26T22:58:57.505Z,10.60
2023-01-26T23:01:25.965Z,9.73
2023-01-26T23:03:55.885Z,11.32
2023-01-26T23:06:23.114Z,10.93
2023-01-26T23:08:50.383Z,11.40
2023-01-26T23:11:25.610Z,11.68
2023-01-26T23:13:54.270Z,11.35
2023-01-26T23:16:23.024Z,12.18
2023-01-26T23:18:49.919Z,10.75
2023-01-26T23:21:16.816Z,11.15
2023-01-26T23:23:43.453Z,11.27
2023-01-26T23:26:10.580Z,10.63
2023-01-26T23:28:39.900Z,10.57
2023-01-26T23:31:07.639Z,9.93
2023-01-26T23:33:35.541Z,11.65
2023-01-26T23:36:02.798Z,11.25
2023-01-26T23:38:30.298Z,11.70
2023-01-26T23:40:57.677Z,11.43
2023-01-26T23:43:24.530Z,11.43
2023-01-26T23:45:51.965Z,10.05
2023-01-26T23:48:19.606Z,11.40
2023-01-26T23:50:46.966Z,11.02
2023-01-26T23:53:14.455Z,11.90
2023-01-26T23:55:42.362Z,12.32
2023-01-26T23:58:10.239Z,11.02
